createdAt,value
2023-03-21T00:11:18.351Z,100
2023-03-21T00:26:41.660Z,99
2023-03-21T00:42:04.950Z,96.3
2023-03-21T00:57:28.243Z,95.3
2023-03-21T01:12:51.562Z,94.8
2023-03-21T01:28:13.860Z,93.8
2023-03-21T01:43:37.167Z,93.8
2023-03-21T01:59:00.478Z,96.1
2023-03-21T02:14:23.783Z,97.2
2023-03-21T02:29:47.072Z,97.6
2023-03-21T02:45:10.385Z,99.1
2023-03-21T03:00:33.695Z,99.7
2023-03-21T03:15:56.988Z,100
2023-03-21T03:31:20.304Z,100
2023-03-21T03:46:43.595Z,100
2023-03-21T04:02:06.886Z,100
2023-03-21T04:17:30.189Z,100
2023-03-21T04:32:53.505Z,99.9
2023-03-21T04:48:15.771Z,99.8
2023-03-21T05:03:39.047Z,99.7
2023-03-21T05:19:02.291Z,99.4
2023-03-21T05:34:25.556Z,98.4
2023-03-21T05:49:48.823Z,97.7
2023-03-21T06:05:12.085Z,96.8
2023-03-21T06:20:35.329Z,95.6
2023-03-21T06:35:58.594Z,95.6
2023-03-21T06:51:21.850Z,93.8
2023-03-21T07:06:45.109Z,93
2023-03-21T07:22:08.386Z,91.3
2023-03-21T07:37:31.639Z,89.8
2023-03-21T07:52:54.894Z,88.6
2023-03-21T08:08:17.174Z,84
2023-03-21T08:23:40.441Z,82.5
2023-03-21T08:39:03.711Z,81.8
2023-03-21T08:54:26.965Z,76.2
2023-03-21T09:09:50.221Z,78.2
2023-03-21T09:25:13.478Z,75.6
2023-03-21T09:40:36.740Z,75.3
2023-03-21T09:55:59.987Z,74
2023-03-21T10:11:23.242Z,72.8
2023-03-21T10:26:46.497Z,66
2023-03-21T10:42:09.755Z,60.1
2023-03-21T10:57:33.008Z,54.8
2023-03-21T11:12:56.273Z,60.9
2023-03-21T11:28:18.543Z,56.4
2023-03-21T11:43:41.804Z,56.1
2023-03-21T11:59:05.064Z,50.9
2023-03-21T12:14:28.302Z,52
2023-03-21T12:15:51.717Z,53.8
2023-03-21T12:17:15.121Z,52.5
2023-03-21T12:18:38.543Z,53.2
2023-03-21T12:20:01.953Z,54.7
2023-03-21T12:21:25.350Z,53.4
2023-03-21T12:22:48.768Z,53.5
2023-03-21T12:24:12.165Z,53.2
2023-03-21T12:25:35.583Z,53.4
2023-03-21T12:26:58.983Z,53.4
2023-03-21T12:28:21.407Z,54.6
2023-03-21T12:29:44.828Z,54.9
2023-03-21T12:31:08.226Z,55.9
2023-03-21T12:32:31.634Z,55.2
2023-03-21T12:33:55.049Z,55.7
2023-03-21T12:35:18.453Z,55.8
2023-03-21T12:36:41.851Z,56.1
2023-03-21T12:38:05.268Z,57.8
2023-03-21T12:39:28.683Z,58.4
2023-03-21T12:40:52.083Z,58.9
2023-03-21T12:42:15.498Z,58.2
2023-03-21T12:43:38.910Z,59.2
2023-03-21T12:45:02.312Z,59.6
2023-03-21T12:46:24.733Z,59.6
2023-03-21T12:47:48.161Z,58.8
2023-03-21T12:49:11.573Z,59.3
2023-03-21T12:50:34.970Z,60.4
2023-03-21T12:51:58.371Z,60.4
2023-03-21T12:53:21.789Z,61
2023-03-21T12:54:45.208Z,62.8
2023-03-21T12:56:08.614Z,61.4
2023-03-21T12:57:32.014Z,61.4
2023-03-21T12:58:55.423Z,62.7
2023-03-21T13:00:18.839Z,62.5
2023-03-21T13:01:42.244Z,60.9
2023-03-21T13:03:05.659Z,60.9
2023-03-21T13:04:28.091Z,61.6
2023-03-21T13:05:51.493Z,61
2023-03-21T13:07:14.914Z,61
2023-03-21T13:08:38.318Z,61.2
2023-03-21T13:10:01.719Z,61.3
2023-03-21T13:11:25.130Z,61.1
2023-03-21T13:12:47.561Z,62.1
2023-03-21T13:14:10.974Z,62.2
2023-03-21T13:15:34.377Z,61.6
2023-03-21T13:16:57.795Z,61.5
2023-03-21T13:18:21.192Z,61
2023-03-21T13:19:44.609Z,61
2023-03-21T13:21:08.015Z,61
2023-03-21T13:22:31.421Z,61.8
2023-03-21T13:23:54.819Z,61.8
2023-03-21T13:25:18.233Z,60.8
2023-03-21T13:26:41.648Z,60.6
2023-03-21T13:28:05.046Z,61.4
2023-03-21T13:29:28.465Z,61
2023-03-21T13:30:50.889Z,61.3
2023-03-21T13:32:14.295Z,60.4
2023-03-21T13:33:37.699Z,61
2023-03-21T13:35:01.102Z,61.1
2023-03-21T13:36:24.513Z,61.2
2023-03-21T13:37:47.923Z,60.1
2023-03-21T13:39:11.333Z,59.3
2023-03-21T13:40:34.747Z,59.1
2023-03-21T13:41:58.155Z,58.6
2023-03-21T13:43:21.555Z,59.2
2023-03-21T13:44:44.956Z,58.5
2023-03-21T13:46:08.374Z,59.4
2023-03-21T13:47:31.776Z,59.8
2023-03-21T13:48:54.198Z,61.4
2023-03-21T13:50:17.617Z,60.5
2023-03-21T13:51:41.025Z,60.1
2023-03-21T13:53:04.429Z,61
2023-03-21T13:54:27.851Z,59.3
2023-03-21T13:55:51.262Z,57.8
2023-03-21T13:57:14.671Z,57.6
2023-03-21T13:58:38.061Z,57.6
2023-03-21T14:00:01.491Z,56.9
2023-03-21T14:01:24.881Z,56.8
2023-03-21T14:02:48.296Z,55.5
2023-03-21T14:04:11.701Z,55.5
2023-03-21T14:05:35.110Z,54.7
2023-03-21T14:06:57.534Z,55.4
2023-03-21T14:08:20.938Z,54.1
2023-03-21T14:09:44.351Z,54.2
2023-03-21T14:11:07.749Z,56.1
2023-03-21T14:12:31.172Z,55.1
2023-03-21T14:13:54.573Z,55.3
2023-03-21T14:15:17.983Z,56.2
2023-03-21T14:16:41.387Z,57.1
2023-03-21T14:18:04.793Z,57.5
2023-03-21T14:19:28.208Z,57.8
2023-03-21T14:20:51.627Z,58.4
2023-03-21T14:22:15.022Z,58.6
2023-03-21T14:23:38.435Z,59
2023-03-21T14:25:00.850Z,58.8
2023-03-21T14:26:24.260Z,59.1
2023-03-21T14:27:47.672Z,59
2023-03-21T14:29:11.081Z,59
2023-03-21T14:30:34.502Z,59.8
2023-03-21T14:31:57.911Z,59.7
2023-03-21T14:33:21.322Z,60.2
2023-03-21T14:34:44.726Z,60.2
2023-03-21T14:36:08.125Z,60.4
2023-03-21T14:37:31.538Z,61.1
2023-03-21T14:38:54.939Z,61.2
2023-03-21T14:40:18.364Z,61.3
2023-03-21T14:41:41.767Z,61.7
2023-03-21T14:43:04.191Z,62.4
2023-03-21T14:44:27.604Z,63.1
2023-03-21T14:45:51.008Z,62.8
2023-03-21T14:47:14.427Z,62.5
2023-03-21T14:48:37.819Z,62.9
2023-03-21T14:50:01.246Z,62.5
2023-03-21T14:51:24.658Z,62.9
2023-03-21T14:52:48.063Z,63.9
2023-03-21T14:54:11.454Z,64.5
2023-03-21T14:55:34.878Z,64
2023-03-21T14:56:58.271Z,63.5
2023-03-21T14:58:21.699Z,63.2
2023-03-21T14:59:45.096Z,62.1
2023-03-21T15:01:07.515Z,63.7
2023-03-21T15:02:30.927Z,64.8
2023-03-21T15:03:54.347Z,64.4
2023-03-21T15:05:17.000Z,63.5
2023-03-21T15:06:41.157Z,63.6
2023-03-21T15:08:04.565Z,64.5
2023-03-21T15:09:27.975Z,65.7
2023-03-21T15:10:51.381Z,65.2
2023-03-21T15:12:14.796Z,66.5
2023-03-21T15:13:38.193Z,65.9
2023-03-21T15:15:01.614Z,65.7
2023-03-21T15:16:25.020Z,66.6
2023-03-21T15:17:48.425Z,66.9
2023-03-21T15:19:10.845Z,67.4
2023-03-21T15:20:34.267Z,67.4
2023-03-21T15:21:57.672Z,67.1
2023-03-21T15:23:21.066Z,66.7
2023-03-21T15:24:44.492Z,66.6
2023-03-21T15:26:07.884Z,65.8
2023-03-21T15:27:31.300Z,66.9
2023-03-21T15:28:54.707Z,67.2
2023-03-21T15:30:18.109Z,66.1
2023-03-21T15:31:41.508Z,66.9
2023-03-21T15:33:04.937Z,66.8
2023-03-21T15:34:28.342Z,67.3
2023-03-21T15:35:51.739Z,68
2023-03-21T15:37:14.165Z,68.1
2023-03-21T15:38:37.582Z,67.8
2023-03-21T15:40:00.989Z,68.1
2023-03-21T15:41:24.400Z,68.4
2023-03-21T15:42:47.801Z,67.8
2023-03-21T15:44:11.200Z,67.5
2023-03-21T15:45:34.623Z,67.2
2023-03-21T15:46:58.015Z,66.6
2023-03-21T15:48:21.427Z,66
2023-03-21T15:49:44.836Z,65.8
2023-03-21T15:51:08.244Z,67
2023-03-21T15:52:31.654Z,66.5
2023-03-21T15:53:55.061Z,66.2
2023-03-21T15:55:17.507Z,66.6
2023-03-21T15:56:40.914Z,66.7
2023-03-21T15:58:04.333Z,65.5
2023-03-21T15:59:27.733Z,66.2
2023-03-21T16:00:51.148Z,65.4
2023-03-21T16:02:14.545Z,65.1
2023-03-21T16:03:37.968Z,65.5
2023-03-21T16:05:01.363Z,65.6
2023-03-21T16:06:24.779Z,65.1
2023-03-21T16:07:48.193Z,65.6
2023-03-21T16:09:11.604Z,65.8
2023-03-21T16:10:35.017Z,65.4
2023-03-21T16:11:58.413Z,65.4
2023-03-21T16:13:20.835Z,66
2023-03-21T16:14:44.243Z,66
2023-03-21T16:16:07.653Z,66.2
2023-03-21T16:17:31.072Z,67.2
2023-03-21T16:18:54.458Z,66.7
2023-03-21T16:20:17.867Z,65.9
2023-03-21T16:21:41.273Z,66.2
2023-03-21T16:23:04.698Z,66.5
2023-03-21T16:24:28.117Z,66.1
2023-03-21T16:25:51.511Z,66.3
2023-03-21T16:27:14.928Z,66.8
2023-03-21T16:28:38.326Z,66.3
2023-03-21T16:30:01.734Z,66.3
2023-03-21T16:31:24.165Z,66.7
2023-03-21T16:32:47.567Z,67.1
2023-03-21T16:34:10.977Z,66.9
2023-03-21T16:35:34.401Z,67.8
2023-03-21T16:36:57.800Z,67.5
2023-03-21T16:38:21.201Z,67.5
2023-03-21T16:39:44.611Z,68
2023-03-21T16:41:08.026Z,68.3
2023-03-21T16:42:31.417Z,68
2023-03-21T16:43:54.824Z,68.1
2023-03-21T16:45:18.232Z,67.7
2023-03-21T16:46:41.651Z,67.8
2023-03-21T16:48:05.057Z,68.8
2023-03-21T16:49:27.487Z,69.6
2023-03-21T16:50:50.883Z,68.3
2023-03-21T16:52:14.294Z,68.6
2023-03-21T16:53:37.705Z,68.9
2023-03-21T16:55:01.109Z,69
2023-03-21T16:56:24.515Z,68.8
2023-03-21T16:57:47.918Z,68.9
2023-03-21T16:59:11.340Z,69
2023-03-21T17:00:34.734Z,69.1
2023-03-21T17:01:58.137Z,69.1
2023-03-21T17:03:21.554Z,69.2
2023-03-21T17:04:44.966Z,69.3
2023-03-21T17:06:08.373Z,69.3
2023-03-21T17:07:30.798Z,69.2
2023-03-21T17:08:54.188Z,69.4
2023-03-21T17:10:17.595Z,69.5
2023-03-21T17:11:41.017Z,69.6
2023-03-21T17:13:04.431Z,69.7
2023-03-21T17:14:27.834Z,69.8
2023-03-21T17:15:51.237Z,69.8
2023-03-21T17:17:14.648Z,70
2023-03-21T17:18:38.054Z,70.1
2023-03-21T17:20:01.463Z,69.7
2023-03-21T17:21:24.877Z,70.2
2023-03-21T17:22:48.271Z,70.1
2023-03-21T17:24:11.695Z,70.3
2023-03-21T17:25:34.105Z,70.5
2023-03-21T17:26:57.517Z,70.5
2023-03-21T17:28:20.928Z,70.6
2023-03-21T17:29:44.333Z,70.8
2023-03-21T17:31:07.739Z,71.1
2023-03-21T17:32:31.143Z,71.2
2023-03-21T17:33:54.562Z,71.5
2023-03-21T17:35:17.953Z,73
2023-03-21T17:36:41.371Z,73.7
2023-03-21T17:38:04.780Z,74.8
2023-03-21T17:39:28.226Z,75.1
2023-03-21T17:40:51.635Z,75.3
2023-03-21T17:42:15.035Z,75.6
2023-03-21T17:45:00.906Z,75.3
2023-03-21T17:46:24.377Z,76
2023-03-21T17:47:47.827Z,75.4
2023-03-21T17:49:11.273Z,76.3
2023-03-21T17:50:34.728Z,76.5
2023-03-21T17:51:57.189Z,76.3
2023-03-21T17:53:20.632Z,75.9
2023-03-21T17:54:44.082Z,75.9
2023-03-21T17:56:07.552Z,75.9
2023-03-21T17:57:30.994Z,76.1
2023-03-21T17:58:54.441Z,76
2023-03-21T18:00:17.904Z,75.8
2023-03-21T18:01:41.338Z,76
2023-03-21T18:03:04.800Z,76.1
2023-03-21T18:04:28.243Z,75.7
2023-03-21T18:05:51.708Z,75.6
2023-03-21T18:07:15.159Z,75.6
2023-03-21T18:08:38.608Z,75.6
2023-03-21T18:10:01.056Z,76.1
2023-03-21T18:11:24.510Z,76.2
2023-03-21T18:12:47.974Z,77.1
2023-03-21T18:14:11.412Z,76.8
2023-03-21T18:15:34.865Z,77.3
2023-03-21T18:16:58.310Z,77.5
2023-03-21T18:18:21.768Z,77.9
2023-03-21T18:19:45.220Z,77.6
2023-03-21T18:21:08.680Z,78.1
2023-03-21T18:22:32.112Z,77.7
2023-03-21T18:23:55.563Z,77.8
2023-03-21T18:25:19.020Z,77.7
2023-03-21T18:26:42.475Z,77.3
2023-03-21T18:28:04.936Z,77.7
2023-03-21T18:29:28.377Z,77.2
2023-03-21T18:30:51.820Z,77.2
2023-03-21T18:32:15.281Z,77.2
2023-03-21T18:33:38.735Z,77.9
2023-03-21T18:35:02.180Z,77.9
2023-03-21T18:36:25.626Z,78.8
2023-03-21T18:37:49.080Z,79
2023-03-21T18:39:12.530Z,79.7
2023-03-21T18:40:35.971Z,79.9
2023-03-21T18:41:59.434Z,79.8
2023-03-21T18:43:22.871Z,80.7
2023-03-21T18:44:46.319Z,81.7
2023-03-21T18:46:08.796Z,81.8
2023-03-21T18:47:32.233Z,83
2023-03-21T18:48:55.681Z,83.1
2023-03-21T18:50:19.143Z,83.3
2023-03-21T18:51:42.579Z,83.5
2023-03-21T18:53:06.028Z,83.8
2023-03-21T18:54:29.481Z,83.5
2023-03-21T18:55:52.930Z,83.8
2023-03-21T18:57:16.378Z,83.8
2023-03-21T18:58:39.839Z,84.2
2023-03-21T19:00:03.294Z,84.1
2023-03-21T19:01:26.742Z,84.4
2023-03-21T19:02:50.176Z,84.6
2023-03-21T19:04:12.656Z,84.9
2023-03-21T19:05:36.096Z,85.4
2023-03-21T19:06:59.542Z,85.9
2023-03-21T19:08:22.992Z,86.1
2023-03-21T19:09:46.448Z,86.1
2023-03-21T19:11:09.889Z,86.3
2023-03-21T19:12:33.348Z,86.7
2023-03-21T19:13:56.784Z,86.9
2023-03-21T19:15:20.237Z,87
2023-03-21T19:16:43.691Z,87.1
2023-03-21T19:19:30.590Z,87.5
2023-03-21T19:20:54.036Z,87.6
2023-03-21T19:22:16.514Z,87.9
2023-03-21T19:23:39.969Z,87.7
2023-03-21T19:25:03.405Z,88.4
2023-03-21T19:27:50.296Z,89.3
2023-03-21T19:29:13.728Z,89.4
2023-03-21T19:30:37.186Z,89.9
2023-03-21T19:32:00.636Z,90.1
2023-03-21T19:33:24.078Z,90.4
2023-03-21T19:34:47.534Z,90.4
2023-03-21T19:36:10.990Z,90.9
2023-03-21T19:37:34.435Z,90.8
2023-03-21T19:38:57.878Z,90.8
2023-03-21T19:40:20.346Z,91.2
2023-03-21T19:41:43.804Z,91.4
2023-03-21T19:43:07.240Z,91.4
2023-03-21T19:44:30.690Z,91.4
2023-03-21T19:45:54.143Z,91.4
2023-03-21T19:47:17.587Z,91.4
2023-03-21T19:48:41.027Z,91.5
2023-03-21T19:50:04.490Z,91.7
2023-03-21T19:51:27.938Z,91.8
2023-03-21T19:52:51.383Z,91.9
2023-03-21T19:54:14.833Z,91.5
2023-03-21T19:55:38.291Z,91.7
2023-03-21T19:57:01.724Z,91.9
2023-03-21T19:58:24.186Z,92.3
2023-03-21T19:59:47.638Z,92.4
2023-03-21T20:01:11.093Z,92.2
2023-03-21T20:02:34.549Z,92.4
2023-03-21T20:03:57.995Z,92.7
2023-03-21T20:05:21.435Z,92.4
2023-03-21T20:06:44.889Z,92.4
2023-03-21T20:08:08.327Z,92.5
2023-03-21T20:09:31.791Z,92.4
2023-03-21T20:10:55.227Z,92.8
2023-03-21T20:12:18.686Z,93.1
2023-03-21T20:13:42.134Z,93.6
2023-03-21T20:15:05.572Z,94
2023-03-21T20:16:28.041Z,94.2
2023-03-21T20:17:51.498Z,94.5
2023-03-21T20:19:14.945Z,94.6
2023-03-21T20:20:38.394Z,94.8
2023-03-21T20:22:01.831Z,95
2023-03-21T20:23:25.283Z,95.3
2023-03-21T20:24:48.742Z,95.5
2023-03-21T20:26:12.195Z,95.8
2023-03-21T20:27:35.627Z,95.8
2023-03-21T20:28:59.079Z,95.9
2023-03-21T20:30:22.536Z,96
2023-03-21T20:31:45.987Z,96
2023-03-21T20:33:09.430Z,96.3
2023-03-21T20:34:31.899Z,96.5
2023-03-21T20:35:55.344Z,96.5
2023-03-21T20:37:18.797Z,96.7
2023-03-21T20:38:42.240Z,96.9
2023-03-21T20:40:05.689Z,97
2023-03-21T20:41:29.143Z,97
2023-03-21T20:42:52.593Z,97
2023-03-21T20:44:16.000Z,97.1
2023-03-21T20:45:39.490Z,97.2
2023-03-21T20:47:02.948Z,97.4
2023-03-21T20:48:26.384Z,97.6
2023-03-21T20:49:49.847Z,97.6
2023-03-21T20:51:13.292Z,97.8
2023-03-21T20:52:35.745Z,97.8
2023-03-21T20:53:59.199Z,97.9
2023-03-21T20:55:22.653Z,97.9
2023-03-21T21:10:45.958Z,99
2023-03-21T21:26:09.238Z,99.8
2023-03-21T21:41:32.546Z,100
2023-03-21T21:56:55.847Z,100
2023-03-21T22:12:19.140Z,100
2023-03-21T22:27:42.431Z,100
2023-03-21T22:43:05.725Z,100
2023-03-21T22:58:29.024Z,100
2023-03-21T23:13:52.322Z,100
2023-03-21T23:29:15.635Z,100
2023-03-21T23:44:37.944Z,100
